createdAt,value
2017-11-20T00:00:25.217Z,22.63
2017-11-20T00:00:57.242Z,22.6
2017-11-20T00:01:29.284Z,22.64
2017-11-20T00:02:01.315Z,22.66
2017-11-20T00:02:33.340Z,22.61
2017-11-20T00:03:05.378Z,22.55
2017-11-20T00:03:37.387Z,22.66
2017-11-20T00:04:10.129Z,22.59
2017-11-20T00:04:42.144Z,22.59
2017-11-20T00:05:14.162Z,22.69
2017-11-20T00:05:46.211Z,22.63
2017-11-20T00:06:18.352Z,22.61
2017-11-20T00:06:50.371Z,22.59
2017-11-20T00:07:22.384Z,22.59
2017-11-20T00:07:54.432Z,22.61
2017-11-20T00:08:26.487Z,22.61
2017-11-20T00:08:58.530Z,22.63
2017-11-20T00:09:30.561Z,22.55
2017-11-20T00:10:02.585Z,22.57
2017-11-20T00:10:34.641Z,22.63
2017-11-20T00:11:06.626Z,22.54
2017-11-20T00:11:38.670Z,22.63
2017-11-20T00:12:10.676Z,22.64
2017-11-20T00:12:42.677Z,22.61
2017-11-20T00:13:15.346Z,22.64
2017-11-20T00:13:47.366Z,22.61
2017-11-20T00:14:19.364Z,22.61
2017-11-20T00:14:51.377Z,22.6
2017-11-20T00:15:23.397Z,22.57
2017-11-20T00:15:55.413Z,22.61
2017-11-20T00:16:27.398Z,22.57
2017-11-20T00:16:59.423Z,22.61
2017-11-20T00:17:31.463Z,22.55
2017-11-20T00:18:03.499Z,22.66
2017-11-20T00:18:35.549Z,22.61
2017-11-20T00:19:07.740Z,22.63
2017-11-20T00:19:39.934Z,22.63
2017-11-20T00:20:11.996Z,22.57
2017-11-20T00:20:44.015Z,22.66
2017-11-20T00:21:16.056Z,22.61
2017-11-20T00:21:48.060Z,22.57
2017-11-20T00:22:20.082Z,22.59
2017-11-20T00:22:52.175Z,22.61
2017-11-20T00:23:24.210Z,22.6
2017-11-20T00:23:56.225Z,22.63
2017-11-20T00:24:28.271Z,22.57
2017-11-20T00:25:00.306Z,22.59
2017-11-20T00:25:32.326Z,22.57
2017-11-20T00:26:04.367Z,22.7
2017-11-20T00:26:36.405Z,22.63
2017-11-20T00:27:08.443Z,22.57
2017-11-20T00:27:40.458Z,22.63
2017-11-20T00:28:12.517Z,22.69
2017-11-20T00:28:44.561Z,22.64
2017-11-20T00:29:16.588Z,22.64
2017-11-20T00:29:48.654Z,22.69
2017-11-20T00:30:20.642Z,22.69
2017-11-20T00:30:52.678Z,22.73
2017-11-20T00:31:24.682Z,22.67
2017-11-20T00:31:56.781Z,22.67
2017-11-20T00:32:28.758Z,22.61
2017-11-20T00:33:00.767Z,22.76
2017-11-20T00:33:32.775Z,22.67
2017-11-20T00:34:04.787Z,22.73
2017-11-20T00:34:36.803Z,22.79
2017-11-20T00:35:09.743Z,22.71
2017-11-20T00:35:41.773Z,22.69
2017-11-20T00:36:13.815Z,22.7
2017-11-20T00:36:46.463Z,22.71
2017-11-20T00:37:18.505Z,22.76
2017-11-20T00:37:50.527Z,22.73
2017-11-20T00:38:22.558Z,22.79
2017-11-20T00:38:54.616Z,22.71
2017-11-20T00:39:26.654Z,22.73
2017-11-20T00:39:58.654Z,22.75
2017-11-20T00:40:30.731Z,22.71
2017-11-20T00:41:02.764Z,22.71
2017-11-20T00:41:34.777Z,22.71
2017-11-20T00:42:06.810Z,22.75
2017-11-20T00:42:38.818Z,22.76
2017-11-20T00:43:10.836Z,22.7
2017-11-20T00:43:42.942Z,22.71
2017-11-20T00:44:15.098Z,22.75
2017-11-20T00:44:47.124Z,22.69
2017-11-20T00:45:19.114Z,22.69
2017-11-20T00:45:51.196Z,22.7
2017-11-20T00:46:23.232Z,22.78
2017-11-20T00:46:55.278Z,22.79
2017-11-20T00:47:27.298Z,22.71
2017-11-20T00:47:59.331Z,22.69
2017-11-20T00:48:31.380Z,22.78
2017-11-20T00:49:03.391Z,22.7
2017-11-20T00:49:35.442Z,22.85
2017-11-20T00:50:07.518Z,22.78
2017-11-20T00:50:39.545Z,22.66
2017-11-20T00:51:11.580Z,22.85
2017-11-20T00:51:43.623Z,22.82
2017-11-20T00:52:15.744Z,22.84
2017-11-20T00:52:47.761Z,22.71
2017-11-20T00:53:19.776Z,22.78
2017-11-20T00:53:51.786Z,22.73
2017-11-20T00:54:23.804Z,22.84
2017-11-20T00:54:55.857Z,22.78
2017-11-20T00:55:27.880Z,22.79
2017-11-20T00:55:59.922Z,22.7
2017-11-20T00:56:31.918Z,22.76
2017-11-20T00:57:03.928Z,22.85
2017-11-20T00:57:35.942Z,22.76
2017-11-20T00:58:07.981Z,22.7
2017-11-20T00:58:39.983Z,22.79
2017-11-20T00:59:12.042Z,22.78
2017-11-20T00:59:44.157Z,22.71
2017-11-20T01:00:16.208Z,22.78
2017-11-20T01:00:48.314Z,22.71
2017-11-20T01:01:20.304Z,22.71
2017-11-20T01:01:52.359Z,22.78
2017-11-20T01:02:24.475Z,22.84
2017-11-20T01:02:56.502Z,22.82
2017-11-20T01:03:28.530Z,22.73
2017-11-20T01:04:00.526Z,22.81
2017-11-20T01:04:32.527Z,22.71
2017-11-20T01:05:04.555Z,22.66
2017-11-20T01:05:36.563Z,22.82
2017-11-20T01:06:08.602Z,22.85
2017-11-20T01:06:40.620Z,22.86
2017-11-20T01:07:12.613Z,22.84
2017-11-20T01:07:44.649Z,22.79
2017-11-20T01:08:16.672Z,22.84
2017-11-20T01:08:48.702Z,22.78
2017-11-20T01:09:20.742Z,22.79
2017-11-20T01:09:52.765Z,22.79
2017-11-20T01:10:24.796Z,22.82
2017-11-20T01:10:56.991Z,22.82
2017-11-20T01:11:28.998Z,22.78
2017-11-20T01:12:01.027Z,22.82
2017-11-20T01:12:33.040Z,22.78
2017-11-20T01:13:05.067Z,22.75
2017-11-20T01:13:37.092Z,22.81
2017-11-20T01:14:09.132Z,22.73
2017-11-20T01:14:41.156Z,22.78
2017-11-20T01:15:13.154Z,22.84
2017-11-20T01:15:45.176Z,22.82
2017-11-20T01:16:17.222Z,22.88
2017-11-20T01:16:49.264Z,22.84
2017-11-20T01:17:21.315Z,22.86
2017-11-20T01:17:53.352Z,22.82
2017-11-20T01:18:25.374Z,22.75
2017-11-20T01:18:57.399Z,22.81
2017-11-20T01:19:29.433Z,22.81
2017-11-20T01:20:01.473Z,22.79
2017-11-20T01:20:33.480Z,22.79
2017-11-20T01:21:05.582Z,22.78
2017-11-20T01:21:37.681Z,22.76
2017-11-20T01:22:09.689Z,22.81
2017-11-20T01:22:41.720Z,22.81
2017-11-20T01:23:13.741Z,22.75
2017-11-20T01:23:45.762Z,22.78
2017-11-20T01:24:17.837Z,22.81
2017-11-20T01:24:49.897Z,22.84
2017-11-20T01:25:21.893Z,22.86
2017-11-20T01:25:53.925Z,22.76
2017-11-20T01:26:25.939Z,22.85
2017-11-20T01:26:57.943Z,22.79
2017-11-20T01:27:29.949Z,22.86
2017-11-20T01:28:01.955Z,22.81
2017-11-20T01:28:33.955Z,22.82
2017-11-20T01:29:05.980Z,22.82
2017-11-20T01:29:37.998Z,22.76
2017-11-20T01:30:10.002Z,22.79
2017-11-20T01:30:42.108Z,22.82
2017-11-20T01:31:14.134Z,22.86
2017-11-20T01:31:46.188Z,22.82
2017-11-20T01:32:18.203Z,22.79
2017-11-20T01:32:50.287Z,22.86
2017-11-20T01:33:22.293Z,22.91
2017-11-20T01:33:54.287Z,22.85
2017-11-20T01:34:26.325Z,22.84
2017-11-20T01:34:58.400Z,22.85
2017-11-20T01:35:30.413Z,22.85
2017-11-20T01:36:02.454Z,22.85
2017-11-20T01:36:34.495Z,22.82
2017-11-20T01:37:06.526Z,22.78
2017-11-20T01:37:38.614Z,22.81
2017-11-20T01:38:10.596Z,22.82
2017-11-20T01:38:42.575Z,22.78
2017-11-20T01:39:14.580Z,22.82
2017-11-20T01:39:46.621Z,22.88
2017-11-20T01:40:18.635Z,22.91
2017-11-20T01:40:50.781Z,22.84
2017-11-20T01:41:22.796Z,22.88
2017-11-20T01:41:54.818Z,22.89
2017-11-20T01:42:26.836Z,22.84
2017-11-20T01:42:58.839Z,22.81
2017-11-20T01:43:30.847Z,22.89
2017-11-20T01:44:02.879Z,22.85
2017-11-20T01:44:34.920Z,22.88
2017-11-20T01:45:06.946Z,22.84
2017-11-20T01:45:38.969Z,22.82
2017-11-20T01:46:10.965Z,22.85
2017-11-20T01:46:42.962Z,22.82
2017-11-20T01:47:14.992Z,22.85
2017-11-20T01:47:47.032Z,22.89
2017-11-20T01:48:19.054Z,22.88
2017-11-20T01:48:51.083Z,22.85
2017-11-20T01:49:23.197Z,22.86
2017-11-20T01:49:55.208Z,22.85
2017-11-20T01:50:27.227Z,22.82
2017-11-20T01:50:59.252Z,22.89
2017-11-20T01:51:31.292Z,22.89
2017-11-20T01:52:03.300Z,22.89
2017-11-20T01:52:35.344Z,22.89
2017-11-20T01:53:07.385Z,22.86
2017-11-20T01:53:39.548Z,22.91
2017-11-20T01:54:11.535Z,22.85
2017-11-20T01:54:43.555Z,22.86
2017-11-20T01:55:15.586Z,22.89
2017-11-20T01:55:47.637Z,22.89
2017-11-20T01:56:19.662Z,22.96
2017-11-20T01:56:51.706Z,22.92
2017-11-20T01:57:23.755Z,22.86
2017-11-20T01:57:55.779Z,22.91
2017-11-20T01:58:27.801Z,22.85
2017-11-20T01:58:59.875Z,22.89
2017-11-20T01:59:31.976Z,22.92
2017-11-20T02:00:04.001Z,22.91
2017-11-20T02:00:36.025Z,22.91
2017-11-20T02:01:08.057Z,22.89
2017-11-20T02:01:40.057Z,22.92
2017-11-20T02:02:12.102Z,22.96
2017-11-20T02:02:44.302Z,22.89
2017-11-20T02:03:16.333Z,22.91
2017-11-20T02:03:48.355Z,22.91
2017-11-20T02:04:20.424Z,22.99
2017-11-20T02:04:52.449Z,22.94
2017-11-20T02:05:24.464Z,22.94
2017-11-20T02:05:56.626Z,22.97
2017-11-20T02:06:28.629Z,22.94
2017-11-20T02:07:00.653Z,22.91
2017-11-20T02:07:32.663Z,22.97
2017-11-20T02:08:04.778Z,22.91
2017-11-20T02:08:36.785Z,22.97
2017-11-20T02:09:08.819Z,22.96
2017-11-20T02:09:40.877Z,22.96
2017-11-20T02:10:13.031Z,22.91
2017-11-20T02:10:45.183Z,23
2017-11-20T02:11:17.223Z,22.96
2017-11-20T02:11:49.253Z,22.97
2017-11-20T02:12:21.273Z,23
2017-11-20T02:12:53.309Z,22.99
2017-11-20T02:13:25.316Z,22.99
2017-11-20T02:13:57.316Z,22.97
2017-11-20T02:14:30.204Z,23.04
2017-11-20T02:15:02.232Z,23
2017-11-20T02:15:34.258Z,23
2017-11-20T02:16:06.238Z,22.99
2017-11-20T02:16:38.391Z,23
2017-11-20T02:17:10.397Z,23
2017-11-20T02:17:42.440Z,23.07
2017-11-20T02:18:14.439Z,23.06
2017-11-20T02:18:46.486Z,23.03
2017-11-20T02:19:18.485Z,23.06
2017-11-20T02:19:50.566Z,23.03
2017-11-20T02:20:22.577Z,23.07
2017-11-20T02:20:54.611Z,23
2017-11-20T02:21:26.655Z,23.01
2017-11-20T02:21:58.704Z,23.04
2017-11-20T02:22:30.749Z,23.03
2017-11-20T02:23:02.735Z,23.03
2017-11-20T02:23:34.846Z,23.04
2017-11-20T02:24:06.894Z,23.04
2017-11-20T02:24:38.934Z,23.09
2017-11-20T02:25:10.961Z,23.07
2017-11-20T02:25:42.987Z,23.06
2017-11-20T02:26:14.997Z,23.06
2017-11-20T02:26:46.988Z,23.03
2017-11-20T02:27:19.029Z,23.07
2017-11-20T02:27:51.159Z,23.1
2017-11-20T02:28:23.159Z,23.01
2017-11-20T02:28:55.195Z,23.04
2017-11-20T02:29:27.246Z,23.03
2017-11-20T02:29:59.329Z,23.06
2017-11-20T02:30:31.355Z,23.12
2017-11-20T02:31:03.352Z,23.09
2017-11-20T02:31:35.411Z,23.04
2017-11-20T02:32:07.405Z,23
2017-11-20T02:32:39.458Z,23.04
2017-11-20T02:33:11.503Z,22.99
2017-11-20T02:33:43.549Z,23.03
2017-11-20T02:34:15.577Z,23.07
2017-11-20T02:34:47.659Z,23.14
2017-11-20T02:35:19.687Z,23.09
2017-11-20T02:35:55.667Z,22.99
2017-11-20T02:36:27.691Z,23.06
2017-11-20T02:36:59.736Z,23.1
2017-11-20T02:37:31.887Z,23.03
2017-11-20T02:38:03.887Z,23.06
2017-11-20T02:38:35.956Z,23.07
2017-11-20T02:39:07.987Z,23.03
2017-11-20T02:39:40.017Z,23.14
2017-11-20T02:40:12.023Z,23.06
2017-11-20T02:40:44.050Z,23.07
2017-11-20T02:41:16.080Z,23.12
2017-11-20T02:41:48.134Z,23.09
2017-11-20T02:42:20.156Z,23.06
2017-11-20T02:42:52.216Z,23.07
2017-11-20T02:43:24.260Z,23.07
2017-11-20T02:43:56.299Z,23.07
2017-11-20T02:44:28.300Z,23.09
2017-11-20T02:45:00.298Z,23.09
2017-11-20T02:45:32.342Z,23.1
2017-11-20T02:46:04.366Z,23.06
2017-11-20T02:46:36.379Z,23.06
2017-11-20T02:47:08.423Z,23.09
2017-11-20T02:47:40.457Z,23.07
2017-11-20T02:48:12.470Z,23.21
2017-11-20T02:48:44.490Z,23.09
2017-11-20T02:49:16.529Z,23.01
2017-11-20T02:49:48.574Z,23.07
2017-11-20T02:50:20.579Z,23.07
2017-11-20T02:50:52.583Z,23.07
2017-11-20T02:51:24.577Z,23.04
2017-11-20T02:51:56.689Z,23.1
2017-11-20T02:52:28.686Z,23.07
2017-11-20T02:53:00.721Z,23.03
2017-11-20T02:53:32.753Z,23.04
2017-11-20T02:54:04.813Z,23.04
2017-11-20T02:54:36.828Z,23.07
2017-11-20T02:55:08.871Z,23
2017-11-20T02:55:40.879Z,23.09
2017-11-20T02:56:12.910Z,23.04
2017-11-20T02:56:44.949Z,23.07
2017-11-20T02:57:17.833Z,23.07
2017-11-20T02:57:49.883Z,23.04
2017-11-20T02:58:21.904Z,23.06
2017-11-20T02:58:53.940Z,23.01
2017-11-20T02:59:25.938Z,23.09
2017-11-20T02:59:57.949Z,23.07
2017-11-20T03:00:30.000Z,23.07
2017-11-20T03:01:02.029Z,23.04
2017-11-20T03:01:34.102Z,23.07
2017-11-20T03:02:06.122Z,23.1
2017-11-20T03:02:38.147Z,23.03
2017-11-20T03:03:10.209Z,23.07
2017-11-20T03:03:42.189Z,23.07
2017-11-20T03:04:14.211Z,23.1
2017-11-20T03:04:46.230Z,23.1
2017-11-20T03:05:18.236Z,23.09
2017-11-20T03:05:50.233Z,23.14
2017-11-20T03:06:22.245Z,23.07
2017-11-20T03:06:54.247Z,23.07
2017-11-20T03:07:26.267Z,23.12
2017-11-20T03:07:58.329Z,23.04
2017-11-20T03:08:30.412Z,23.06
2017-11-20T03:09:02.440Z,23.07
2017-11-20T03:09:34.458Z,23.04
2017-11-20T03:10:06.614Z,23.06
2017-11-20T03:10:38.716Z,23.06
2017-11-20T03:11:10.741Z,23.06
2017-11-20T03:11:42.760Z,23.1
2017-11-20T03:12:14.793Z,23.07
2017-11-20T03:12:46.805Z,23.07
2017-11-20T03:13:18.800Z,23.04
2017-11-20T03:13:50.903Z,23.04
2017-11-20T03:14:22.954Z,23.1
2017-11-20T03:14:54.938Z,23.1
2017-11-20T03:15:26.957Z,23.09
2017-11-20T03:15:58.979Z,23.1
2017-11-20T03:16:31.015Z,23.12
2017-11-20T03:17:03.043Z,23.1
2017-11-20T03:17:35.066Z,23.07
2017-11-20T03:18:07.089Z,23.07
2017-11-20T03:18:39.107Z,23.14
2017-11-20T03:19:11.187Z,23.1
2017-11-20T03:19:43.181Z,23.16
2017-11-20T03:20:15.191Z,23.07
2017-11-20T03:20:47.160Z,23.07
2017-11-20T03:21:19.213Z,23.06
2017-11-20T03:21:51.246Z,23.07
2017-11-20T03:22:23.326Z,23.07
2017-11-20T03:22:56.266Z,23.07
2017-11-20T03:23:28.297Z,23.04
2017-11-20T03:24:00.312Z,23.06
2017-11-20T03:24:32.310Z,23.03
2017-11-20T03:25:04.333Z,23.03
2017-11-20T03:25:36.374Z,23.07
2017-11-20T03:26:08.451Z,23.07
2017-11-20T03:26:40.503Z,23.06
2017-11-20T03:27:12.507Z,23.07
2017-11-20T03:27:44.520Z,23.06
2017-11-20T03:28:16.546Z,23.07
2017-11-20T03:28:48.569Z,23.14
2017-11-20T03:29:20.600Z,23.06
2017-11-20T03:29:52.619Z,23.12
2017-11-20T03:30:25.360Z,23.1
2017-11-20T03:30:57.376Z,23.07
2017-11-20T03:31:29.378Z,23.06
2017-11-20T03:32:01.400Z,23.09
2017-11-20T03:32:33.438Z,23.04
2017-11-20T03:33:05.450Z,23.21
2017-11-20T03:33:37.484Z,23.03
2017-11-20T03:34:09.496Z,23.16
2017-11-20T03:34:41.570Z,23.09
2017-11-20T03:35:13.587Z,23.04
2017-11-20T03:35:45.577Z,23.06
2017-11-20T03:36:17.605Z,23.04
2017-11-20T03:36:50.156Z,23.06
2017-11-20T03:37:22.172Z,23.04
2017-11-20T03:37:54.164Z,23.04
2017-11-20T03:38:26.163Z,23.01
2017-11-20T03:38:58.185Z,23.09
2017-11-20T03:39:30.300Z,23.14
2017-11-20T03:40:02.332Z,23.06
2017-11-20T03:40:34.350Z,23.14
2017-11-20T03:41:06.369Z,23.12
2017-11-20T03:41:38.385Z,23.07
2017-11-20T03:42:10.382Z,23.07
2017-11-20T03:42:43.050Z,23.04
2017-11-20T03:43:15.108Z,23.06
2017-11-20T03:43:47.164Z,23.07
2017-11-20T03:44:19.198Z,23.09
2017-11-20T03:44:51.215Z,23.01
2017-11-20T03:45:23.276Z,23.03
2017-11-20T03:45:55.310Z,23.07
2017-11-20T03:46:27.345Z,23.03
2017-11-20T03:46:59.370Z,23.1
2017-11-20T03:47:31.477Z,23.01
2017-11-20T03:48:03.490Z,23.01
2017-11-20T03:48:35.483Z,22.94
2017-11-20T03:49:07.494Z,23.01
2017-11-20T03:49:39.550Z,23.06
2017-11-20T03:50:11.578Z,23.06
2017-11-20T03:50:43.662Z,23
2017-11-20T03:51:15.683Z,22.99
2017-11-20T03:51:47.729Z,23.06
2017-11-20T03:52:19.781Z,23.01
2017-11-20T03:52:51.754Z,23.04
2017-11-20T03:53:23.806Z,23.03
2017-11-20T03:53:55.806Z,23.03
2017-11-20T03:54:27.820Z,22.99
2017-11-20T03:54:59.886Z,22.97
2017-11-20T03:55:31.915Z,23.03
2017-11-20T03:56:03.938Z,22.94
2017-11-20T03:56:35.974Z,23.03
2017-11-20T03:57:08.021Z,23
2017-11-20T03:57:40.044Z,22.99
2017-11-20T03:58:12.072Z,23.01
2017-11-20T03:58:44.092Z,23.04
2017-11-20T03:59:16.090Z,23.01
2017-11-20T03:59:48.107Z,23.07
2017-11-20T04:00:20.101Z,23
2017-11-20T04:00:52.137Z,22.92
2017-11-20T04:01:24.189Z,23.01
2017-11-20T04:01:56.226Z,23.03
2017-11-20T04:02:28.268Z,23.04
2017-11-20T04:03:00.252Z,23.03
2017-11-20T04:03:32.259Z,23
2017-11-20T04:04:04.286Z,22.97
2017-11-20T04:04:36.326Z,22.99
2017-11-20T04:05:08.321Z,22.96
2017-11-20T04:05:40.337Z,22.91
2017-11-20T04:06:12.351Z,23
2017-11-20T04:06:44.380Z,23
2017-11-20T04:07:16.421Z,22.91
2017-11-20T04:07:48.442Z,22.88
2017-11-20T04:08:20.450Z,22.89
2017-11-20T04:08:52.481Z,23
2017-11-20T04:09:24.482Z,22.94
2017-11-20T04:09:56.550Z,22.97
2017-11-20T04:10:28.568Z,22.91
2017-11-20T04:11:00.606Z,22.97
2017-11-20T04:11:32.612Z,22.89
2017-11-20T04:12:04.629Z,22.97
2017-11-20T04:12:36.638Z,23.03
2017-11-20T04:13:08.672Z,22.88
2017-11-20T04:13:40.660Z,22.97
2017-11-20T04:14:12.715Z,22.96
2017-11-20T04:14:44.738Z,22.88
2017-11-20T04:15:16.768Z,22.94
2017-11-20T04:15:48.831Z,22.97
2017-11-20T04:16:20.867Z,22.97
2017-11-20T04:16:52.873Z,22.91
2017-11-20T04:17:24.896Z,22.96
2017-11-20T04:17:56.892Z,22.96
2017-11-20T04:18:28.924Z,22.88
2017-11-20T04:19:00.931Z,22.89
2017-11-20T04:19:33.096Z,22.88
2017-11-20T04:20:05.190Z,23
2017-11-20T04:20:37.223Z,22.89
2017-11-20T04:21:09.260Z,22.97
2017-11-20T04:21:41.274Z,22.88
2017-11-20T04:22:13.290Z,22.91
2017-11-20T04:22:45.333Z,22.91
2017-11-20T04:23:17.343Z,22.96
2017-11-20T04:23:49.291Z,22.96
2017-11-20T04:24:21.318Z,22.91
2017-11-20T04:24:53.419Z,22.94
2017-11-20T04:25:25.584Z,22.92
2017-11-20T04:25:57.626Z,22.92
2017-11-20T04:26:29.635Z,22.92
2017-11-20T04:27:01.623Z,22.92
2017-11-20T04:27:33.696Z,22.94
2017-11-20T04:28:05.720Z,22.91
2017-11-20T04:28:37.742Z,22.92
2017-11-20T04:29:09.782Z,22.92
2017-11-20T04:29:41.815Z,22.92
2017-11-20T04:30:13.850Z,22.89
2017-11-20T04:30:45.859Z,22.89
2017-11-20T04:31:17.871Z,22.88
2017-11-20T04:31:49.937Z,22.91
2017-11-20T04:32:22.005Z,22.91
2017-11-20T04:32:54.008Z,22.89
2017-11-20T04:33:26.032Z,22.88
2017-11-20T04:33:58.077Z,22.91
2017-11-20T04:34:30.107Z,22.88
2017-11-20T04:35:02.151Z,22.84
2017-11-20T04:35:34.212Z,22.91
2017-11-20T04:36:06.368Z,22.91
2017-11-20T04:36:38.412Z,22.96
2017-11-20T04:37:10.441Z,22.89
2017-11-20T04:37:42.466Z,22.91
2017-11-20T04:38:14.477Z,22.89
2017-11-20T04:38:46.501Z,22.96
2017-11-20T04:39:18.570Z,22.97
2017-11-20T04:39:50.584Z,22.97
2017-11-20T04:40:22.579Z,22.91
2017-11-20T04:40:54.599Z,22.86
2017-11-20T04:41:26.592Z,22.96
2017-11-20T04:41:58.648Z,22.94
2017-11-20T04:42:30.685Z,22.89
2017-11-20T04:43:02.726Z,22.99
2017-11-20T04:43:34.757Z,22.91
2017-11-20T04:44:06.783Z,22.99
2017-11-20T04:44:38.810Z,22.96
2017-11-20T04:45:10.814Z,22.96
2017-11-20T04:45:42.839Z,22.88
2017-11-20T04:46:14.842Z,22.94
2017-11-20T04:46:46.867Z,22.88
2017-11-20T04:47:18.903Z,22.89
2017-11-20T04:47:50.948Z,22.91
2017-11-20T04:48:22.982Z,22.99
2017-11-20T04:48:55.002Z,22.89
2017-11-20T04:49:27.073Z,22.89
2017-11-20T04:49:59.102Z,22.97
2017-11-20T04:50:31.135Z,22.96
2017-11-20T04:51:03.148Z,22.91
2017-11-20T04:51:35.168Z,22.86
2017-11-20T04:52:07.197Z,22.94
2017-11-20T04:52:39.211Z,22.97
2017-11-20T04:53:11.216Z,22.91
2017-11-20T04:53:43.255Z,22.94
2017-11-20T04:54:15.267Z,23.01
2017-11-20T04:54:47.281Z,22.94
2017-11-20T04:55:19.281Z,22.96
2017-11-20T04:55:51.281Z,22.89
2017-11-20T04:56:23.307Z,22.96
2017-11-20T04:56:55.319Z,22.88
2017-11-20T04:57:27.355Z,22.91
2017-11-20T04:57:59.465Z,22.96
2017-11-20T04:58:31.487Z,22.97
2017-11-20T04:59:03.510Z,22.94
2017-11-20T04:59:35.550Z,22.91
2017-11-20T05:00:07.568Z,22.97
2017-11-20T05:00:39.617Z,22.94
2017-11-20T05:01:11.644Z,22.91
2017-11-20T05:01:43.656Z,22.91
2017-11-20T05:02:15.690Z,22.97
2017-11-20T05:02:47.706Z,23
2017-11-20T05:03:19.717Z,22.88
2017-11-20T05:03:51.726Z,23.01
2017-11-20T05:04:23.732Z,22.92
2017-11-20T05:04:55.755Z,22.99
2017-11-20T05:05:27.786Z,22.91
2017-11-20T05:06:00.590Z,22.96
2017-11-20T05:06:33.409Z,22.96
2017-11-20T05:07:05.450Z,22.96
2017-11-20T05:07:37.460Z,22.97
2017-11-20T05:08:09.525Z,23
2017-11-20T05:08:41.537Z,22.96
2017-11-20T05:09:13.539Z,22.96
2017-11-20T05:09:45.579Z,23.01
2017-11-20T05:10:17.610Z,23
2017-11-20T05:10:49.604Z,22.94
2017-11-20T05:11:21.650Z,23.03
2017-11-20T05:11:53.676Z,22.99
2017-11-20T05:12:25.719Z,23.01
2017-11-20T05:12:57.717Z,23
2017-11-20T05:13:29.763Z,23.01
2017-11-20T05:14:01.790Z,22.99
2017-11-20T05:14:33.820Z,22.96
2017-11-20T05:15:05.855Z,22.97
2017-11-20T05:15:37.890Z,23
2017-11-20T05:16:09.899Z,22.99
2017-11-20T05:16:42.051Z,22.99
2017-11-20T05:17:14.113Z,23.03
2017-11-20T05:17:46.124Z,23.03
2017-11-20T05:18:18.261Z,23.01
2017-11-20T05:18:50.300Z,23.06
2017-11-20T05:19:22.322Z,23.03
2017-11-20T05:19:54.339Z,23.06
2017-11-20T05:20:26.361Z,23.03
2017-11-20T05:20:58.381Z,22.96
2017-11-20T05:21:30.637Z,23.06
2017-11-20T05:22:02.672Z,23.06
2017-11-20T05:22:34.652Z,23.03
2017-11-20T05:23:06.697Z,23.09
2017-11-20T05:23:38.720Z,22.99
2017-11-20T05:24:11.408Z,23.01
2017-11-20T05:24:43.449Z,22.99
2017-11-20T05:25:15.460Z,23.06
2017-11-20T05:25:47.465Z,23.07
2017-11-20T05:26:19.468Z,22.99
2017-11-20T05:26:51.665Z,22.99
2017-11-20T05:27:23.748Z,22.97
2017-11-20T05:27:55.765Z,23.03
2017-11-20T05:28:27.853Z,22.92
2017-11-20T05:28:59.910Z,23.04
2017-11-20T05:29:31.950Z,23
2017-11-20T05:30:03.944Z,23.07
2017-11-20T05:30:35.960Z,23.04
2017-11-20T05:31:07.954Z,23.03
2017-11-20T05:31:40.008Z,23.01
2017-11-20T05:32:12.074Z,23.03
2017-11-20T05:32:44.124Z,23.07
2017-11-20T05:33:16.174Z,23
2017-11-20T05:33:48.196Z,22.99
2017-11-20T05:34:20.226Z,22.99
2017-11-20T05:34:52.231Z,22.99
2017-11-20T05:35:24.241Z,23
2017-11-20T05:35:56.241Z,23.07
2017-11-20T05:36:28.262Z,22.97
2017-11-20T05:37:00.271Z,22.96
2017-11-20T05:37:32.298Z,23.01
2017-11-20T05:38:04.310Z,22.99
2017-11-20T05:38:36.346Z,23.03
2017-11-20T05:39:08.361Z,23.03
2017-11-20T05:39:40.384Z,23
2017-11-20T05:40:12.440Z,23.01
2017-11-20T05:40:44.464Z,22.97
2017-11-20T05:41:16.496Z,22.97
2017-11-20T05:41:48.474Z,22.96
2017-11-20T05:42:20.499Z,22.97
2017-11-20T05:42:52.507Z,23.01
2017-11-20T05:43:24.538Z,22.91
2017-11-20T05:43:56.566Z,23
2017-11-20T05:44:28.595Z,22.97
2017-11-20T05:45:00.621Z,22.89
2017-11-20T05:45:32.652Z,22.91
2017-11-20T05:46:04.671Z,22.91
2017-11-20T05:46:37.437Z,22.91
2017-11-20T05:47:09.467Z,22.96
2017-11-20T05:47:41.588Z,22.97
2017-11-20T05:48:13.640Z,22.92
2017-11-20T05:48:45.661Z,22.96
2017-11-20T05:49:17.686Z,22.91
2017-11-20T05:49:49.779Z,22.94
2017-11-20T05:50:21.906Z,22.99
2017-11-20T05:50:53.920Z,22.86
2017-11-20T05:51:25.941Z,22.91
2017-11-20T05:51:57.982Z,22.99
2017-11-20T05:52:30.007Z,22.92
2017-11-20T05:53:02.050Z,22.94
2017-11-20T05:53:34.053Z,22.96
2017-11-20T05:54:06.116Z,22.92
2017-11-20T05:54:38.176Z,22.97
2017-11-20T05:55:10.190Z,22.94
2017-11-20T05:55:42.183Z,22.88
2017-11-20T05:56:14.224Z,22.88
2017-11-20T05:56:46.230Z,22.92
2017-11-20T05:57:18.246Z,22.91
2017-11-20T05:57:50.272Z,22.85
2017-11-20T05:58:22.276Z,22.89
2017-11-20T05:58:54.260Z,22.92
2017-11-20T05:59:26.271Z,22.91
2017-11-20T05:59:58.301Z,22.92
2017-11-20T06:00:30.328Z,22.89
2017-11-20T06:01:03.037Z,22.91
2017-11-20T06:01:35.115Z,22.89
2017-11-20T06:02:07.196Z,22.86
2017-11-20T06:02:39.232Z,22.88
2017-11-20T06:03:11.230Z,22.91
2017-11-20T06:03:43.276Z,22.89
2017-11-20T06:04:15.348Z,22.89
2017-11-20T06:04:47.347Z,22.85
2017-11-20T06:05:19.384Z,22.86
2017-11-20T06:05:51.382Z,22.89
2017-11-20T06:06:23.423Z,22.88
2017-11-20T06:06:55.431Z,22.89
2017-11-20T06:07:27.413Z,22.81
2017-11-20T06:07:59.413Z,22.86
2017-11-20T06:08:31.430Z,22.81
2017-11-20T06:09:04.232Z,22.89
2017-11-20T06:09:36.285Z,22.88
2017-11-20T06:10:08.306Z,22.89
2017-11-20T06:10:40.350Z,22.89
2017-11-20T06:11:12.375Z,22.89
2017-11-20T06:11:44.414Z,22.84
2017-11-20T06:12:16.667Z,22.85
2017-11-20T06:12:48.686Z,22.82
2017-11-20T06:13:20.715Z,22.86
2017-11-20T06:13:52.732Z,22.88
2017-11-20T06:14:24.777Z,22.85
2017-11-20T06:14:56.809Z,22.84
2017-11-20T06:15:28.823Z,22.84
2017-11-20T06:16:00.857Z,22.85
2017-11-20T06:16:32.889Z,22.81
2017-11-20T06:17:04.905Z,22.78
2017-11-20T06:17:36.954Z,22.86
2017-11-20T06:18:08.962Z,22.82
2017-11-20T06:18:41.453Z,22.81
2017-11-20T06:19:13.494Z,22.82
2017-11-20T06:19:45.510Z,22.89
2017-11-20T06:20:17.521Z,22.85
2017-11-20T06:20:49.562Z,22.85
2017-11-20T06:21:21.575Z,22.81
2017-11-20T06:21:53.635Z,22.79
2017-11-20T06:22:25.655Z,22.85
2017-11-20T06:22:57.680Z,22.85
2017-11-20T06:23:29.657Z,22.86
2017-11-20T06:24:01.717Z,22.79
2017-11-20T06:24:33.732Z,22.84
2017-11-20T06:25:05.749Z,22.85
2017-11-20T06:25:38.179Z,22.86
2017-11-20T06:27:32.606Z,22.82
2017-11-20T06:28:04.616Z,22.76
2017-11-20T06:28:36.622Z,22.82
2017-11-20T06:29:08.692Z,22.85
2017-11-20T06:29:40.714Z,22.84
2017-11-20T06:30:12.700Z,22.86
2017-11-20T06:30:44.719Z,22.84
2017-11-20T06:31:16.711Z,22.81
2017-11-20T06:31:48.737Z,22.85
2017-11-20T06:32:20.805Z,22.85
2017-11-20T06:32:52.854Z,22.82
2017-11-20T06:33:24.862Z,22.84
2017-11-20T06:33:56.881Z,22.85
2017-11-20T06:34:28.899Z,22.85
2017-11-20T06:35:00.912Z,22.85
2017-11-20T06:35:32.948Z,22.76
2017-11-20T06:36:05.029Z,22.86
2017-11-20T06:36:37.051Z,22.81
2017-11-20T06:37:09.080Z,22.85
2017-11-20T06:37:41.242Z,22.84
2017-11-20T06:38:13.266Z,22.84
2017-11-20T06:38:45.325Z,22.86
2017-11-20T06:39:17.354Z,22.85
2017-11-20T06:39:49.463Z,22.84
2017-11-20T06:40:21.499Z,22.79
2017-11-20T06:40:53.525Z,22.82
2017-11-20T06:41:25.563Z,22.78
2017-11-20T06:41:57.603Z,22.84
2017-11-20T06:42:29.715Z,22.85
2017-11-20T06:43:01.756Z,22.84
2017-11-20T06:43:33.744Z,22.85
2017-11-20T06:44:06.652Z,22.85
2017-11-20T06:44:38.669Z,22.78
2017-11-20T06:45:10.792Z,22.86
2017-11-20T06:45:42.804Z,22.84
2017-11-20T06:46:14.847Z,22.85
2017-11-20T06:46:46.920Z,22.86
2017-11-20T06:47:18.988Z,22.88
2017-11-20T06:47:51.017Z,22.84
2017-11-20T06:48:23.061Z,22.86
2017-11-20T06:48:55.109Z,22.85
2017-11-20T06:49:27.167Z,22.86
2017-11-20T06:49:59.247Z,22.85
2017-11-20T06:50:31.274Z,22.78
2017-11-20T06:51:03.293Z,22.82
2017-11-20T06:51:35.294Z,22.81
2017-11-20T06:52:07.451Z,22.82
2017-11-20T06:52:39.461Z,22.79
2017-11-20T06:53:11.496Z,22.82
2017-11-20T06:53:44.379Z,22.78
2017-11-20T06:54:16.411Z,22.78
2017-11-20T06:54:48.434Z,22.88
2017-11-20T06:55:20.478Z,22.85
2017-11-20T06:55:53.465Z,22.88
2017-11-20T06:56:25.581Z,22.85